Time;durP1;ratioP1;P1;durP2;ratioP2;P2;SDS_P1;SDS_P2;PMS_P1;PMS_P2;Temp;Humidity;BMP_temperature;BMP_pressure;BME280_temperature;BME280_humidity;BME280_pressure;Samples;Min_cycle;Max_cycle;Signal;HPM_P1;HPM_P2
2021/09/29 00:01:29;;;;;;;6.80;4.87;;;22.50;70.30;;;;;;5178976;28;20048;-47
2021/09/29 00:04:02;;;;;;;5.28;4.70;;;22.50;70.40;;;;;;5176486;28;20061;-52
2021/09/29 00:06:35;;;;;;;10.15;5.38;;;22.40;70.40;;;;;;5184291;28;20513;-52
2021/09/29 00:09:08;;;;;;;8.52;5.63;;;22.40;70.40;;;;;;5172537;28;20049;-48
2021/09/29 00:11:40;;;;;;;8.45;5.97;;;22.40;70.50;;;;;;5189690;28;20454;-49
2021/09/29 00:14:13;;;;;;;7.23;5.57;;;22.40;70.60;;;;;;5192415;28;20104;-44
2021/09/29 00:16:46;;;;;;;7.30;5.18;;;22.40;70.60;;;;;;5188465;28;20069;-48
2021/09/29 00:19:19;;;;;;;9.18;4.88;;;22.40;70.60;;;;;;5188921;28;20061;-52
2021/09/29 00:21:51;;;;;;;7.18;5.53;;;22.40;70.70;;;;;;5189501;28;20054;-56
2021/09/29 00:24:24;;;;;;;6.40;5.40;;;22.40;70.60;;;;;;5186842;28;20053;-53
2021/09/29 00:26:57;;;;;;;7.25;5.78;;;22.40;70.70;;;;;;5188413;28;20300;-48
2021/09/29 00:29:29;;;;;;;7.88;5.85;;;22.40;70.70;;;;;;5190896;28;20117;-48
2021/09/29 00:32:05;;;;;;;7.35;5.80;;;22.40;70.80;;;;;;5170830;28;20488;-50
2021/09/29 00:34:40;;;;;;;5.72;5.18;;;22.40;70.90;;;;;;5186730;28;20037;-52
2021/09/29 00:37:12;;;;;;;6.45;5.80;;;22.40;71.00;;;;;;5168038;28;20542;-48
2021/09/29 00:39:44;;;;;;;9.68;5.90;;;22.30;70.90;;;;;;5190068;28;20052;-51
2021/09/29 00:42:17;;;;;;;6.90;6.20;;;22.40;71.00;;;;;;5189710;28;20049;-46
2021/09/29 00:44:52;;;;;;;6.32;5.70;;;22.40;71.00;;;;;;5192195;28;20080;-47
2021/09/29 00:47:27;;;;;;;7.10;6.38;;;22.40;71.20;;;;;;5170577;28;20853;-45
2021/09/29 00:50:00;;;;;;;9.07;6.15;;;22.40;71.10;;;;;;5173995;28;20064;-45
2021/09/29 00:52:33;;;;;;;8.68;7.05;;;22.40;71.20;;;;;;5172704;28;20049;-50
2021/09/29 00:55:08;;;;;;;11.35;8.00;;;22.30;71.20;;;;;;5191021;28;20046;-49
2021/09/29 00:57:41;;;;;;;14.07;9.05;;;22.30;71.10;;;;;;5172507;28;20054;-47
2021/09/29 01:00:14;;;;;;;11.85;9.02;;;22.30;71.20;;;;;;5192055;28;20052;-46
2021/09/29 01:02:48;;;;;;;12.38;8.85;;;22.30;71.20;;;;;;5175984;28;20500;-49
2021/09/29 01:05:21;;;;;;;14.30;9.20;;;22.30;71.20;;;;;;5172509;28;20054;-48
2021/09/29 01:08:03;;;;;;;14.70;9.15;;;22.30;71.30;;;;;;5170905;28;20062;-49
2021/09/29 01:10:58;;;;;;;14.75;9.40;;;22.30;71.20;;;;;;5191096;28;20056;-45
2021/09/29 01:13:42;;;;;;;15.75;9.32;;;22.30;71.10;;;;;;5159743;28;20056;-48
2021/09/29 01:16:14;;;;;;;12.82;9.38;;;22.30;71.20;;;;;;5189960;28;20046;-49
2021/09/29 01:18:54;;;;;;;14.18;9.15;;;22.30;71.30;;;;;;5190198;28;20454;-49
2021/09/29 01:21:45;;;;;;;14.65;9.70;;;22.30;71.40;;;;;;5193178;28;20049;-44
2021/09/29 01:24:21;;;;;;;14.80;9.68;;;22.30;71.30;;;;;;5185558;28;20884;-49
2021/09/29 01:26:56;;;;;;;14.85;9.07;;;22.30;71.40;;;;;;5190329;28;20413;-48
2021/09/29 01:29:29;;;;;;;13.70;9.60;;;22.30;71.40;;;;;;5190147;28;20052;-52
2021/09/29 01:32:02;;;;;;;17.40;10.53;;;22.30;71.40;;;;;;5188336;28;20561;-51
2021/09/29 01:34:34;;;;;;;16.73;10.95;;;22.30;71.50;;;;;;5187624;28;20071;-53
2021/09/29 01:37:10;;;;;;;19.63;11.57;;;22.30;71.50;;;;;;5191447;28;20042;-46
2021/09/29 01:39:43;;;;;;;19.98;11.90;;;22.30;71.60;;;;;;5190741;28;20049;-44
2021/09/29 01:42:16;;;;;;;18.70;11.30;;;22.20;71.50;;;;;;5195698;28;20417;-45
2021/09/29 01:44:48;;;;;;;18.70;11.85;;;22.20;71.50;;;;;;5196174;28;20857;-46
2021/09/29 01:47:21;;;;;;;20.90;11.77;;;22.20;71.60;;;;;;5194931;28;20053;-45
2021/09/29 01:50:00;;;;;;;21.67;11.88;;;22.20;71.60;;;;;;5194307;28;20060;-47
2021/09/29 01:52:38;;;;;;;23.05;11.63;;;22.20;71.60;;;;;;5195989;28;20056;-50
2021/09/29 01:55:18;;;;;;;18.65;10.88;;;22.20;71.70;;;;;;5190168;28;20041;-47
2021/09/29 01:57:55;;;;;;;16.95;11.13;;;22.20;71.70;;;;;;5158534;28;20049;-48
2021/09/29 02:00:27;;;;;;;20.55;11.27;;;22.20;71.70;;;;;;5196482;28;20046;-46
2021/09/29 02:03:00;;;;;;;17.85;10.90;;;22.20;71.80;;;;;;5191449;28;20042;-46
2021/09/29 02:05:35;;;;;;;15.73;10.15;;;22.20;72.50;;;;;;5194781;28;20049;-48
2021/09/29 02:08:08;;;;;;;16.40;9.82;;;22.20;71.80;;;;;;5191412;28;20064;-47
2021/09/29 02:10:41;;;;;;;16.65;10.32;;;22.20;71.80;;;;;;5192730;28;20053;-48
2021/09/29 02:13:13;;;;;;;14.00;10.23;;;22.20;71.90;;;;;;5195807;28;20056;-48
2021/09/29 02:15:45;;;;;;;15.50;10.25;;;22.20;71.90;;;;;;5191875;28;20100;-49
2021/09/29 02:18:18;;;;;;;15.40;10.23;;;22.20;71.90;;;;;;5188361;28;20052;-52
2021/09/29 02:20:52;;;;;;;13.25;10.23;;;22.20;71.90;;;;;;5191555;28;20056;-46
2021/09/29 02:23:25;;;;;;;16.00;10.77;;;22.20;71.90;;;;;;5189354;28;20070;-45
2021/09/29 02:25:57;;;;;;;16.05;9.80;;;22.20;71.90;;;;;;5193989;28;20080;-51
2021/09/29 02:28:30;;;;;;;14.68;10.48;;;22.20;71.90;;;;;;5176551;28;20046;-46
2021/09/29 02:31:02;;;;;;;20.83;11.50;;;22.20;71.90;;;;;;5160902;28;20057;-48
2021/09/29 02:33:35;;;;;;;20.88;11.77;;;22.10;71.80;;;;;;5175484;28;20042;-50
2021/09/29 02:36:07;;;;;;;16.05;11.65;;;22.20;71.80;;;;;;5194902;28;20122;-47
2021/09/29 02:38:42;;;;;;;17.13;11.20;;;22.20;71.80;;;;;;5192015;28;20041;-50
2021/09/29 02:41:15;;;;;;;15.75;11.43;;;22.10;71.80;;;;;;5191027;28;20414;-46
2021/09/29 02:43:47;;;;;;;21.85;12.18;;;22.10;71.80;;;;;;5189203;28;20050;-47
2021/09/29 02:46:20;;;;;;;17.02;12.32;;;22.10;71.80;;;;;;5173645;28;20490;-46
2021/09/29 02:48:53;;;;;;;20.42;12.57;;;22.10;71.80;;;;;;5195122;28;20049;-49
2021/09/29 02:51:25;;;;;;;19.50;12.63;;;22.10;71.80;;;;;;5188733;28;20056;-47
2021/09/29 02:53:57;;;;;;;18.83;11.90;;;22.10;71.80;;;;;;5192873;28;20505;-46
2021/09/29 02:56:30;;;;;;;19.23;12.55;;;22.10;71.80;;;;;;5193490;28;20045;-48
2021/09/29 02:59:02;;;;;;;20.20;12.32;;;22.10;71.90;;;;;;5193339;28;20501;-51
2021/09/29 03:01:39;;;;;;;25.10;13.10;;;22.10;71.90;;;;;;5196940;28;20037;-47
2021/09/29 03:04:12;;;;;;;17.35;11.65;;;22.10;71.90;;;;;;5193787;28;20688;-45
2021/09/29 03:06:45;;;;;;;18.73;12.35;;;22.10;71.90;;;;;;5198768;28;20053;-47
2021/09/29 03:09:17;;;;;;;19.63;12.82;;;22.10;71.90;;;;;;5196777;28;20052;-45
2021/09/29 03:11:50;;;;;;;19.95;12.52;;;22.10;71.90;;;;;;5194314;28;20053;-49
2021/09/29 03:14:22;;;;;;;16.95;11.40;;;22.10;72.00;;;;;;5192059;28;20044;-46
2021/09/29 03:17:07;;;;;;;19.63;12.77;;;22.10;72.00;;;;;;5193917;28;20552;-51
2021/09/29 03:19:40;;;;;;;26.43;12.93;;;22.10;72.10;;;;;;5194059;28;20513;-44
2021/09/29 03:22:12;;;;;;;19.38;12.30;;;22.10;72.10;;;;;;5190336;28;20398;-45
2021/09/29 03:24:45;;;;;;;20.20;12.68;;;22.10;72.20;;;;;;5170909;28;20057;-46
2021/09/29 03:27:17;;;;;;;23.58;13.57;;;22.10;72.20;;;;;;5175858;28;20399;-47
2021/09/29 03:29:50;;;;;;;18.95;12.35;;;22.10;72.20;;;;;;5193998;28;20099;-47
2021/09/29 03:32:22;;;;;;;19.80;11.40;;;22.00;72.20;;;;;;5194464;28;20049;-52
2021/09/29 03:34:55;;;;;;;18.50;11.90;;;22.10;72.20;;;;;;5192159;28;20057;-48
2021/09/29 03:37:27;;;;;;;17.50;10.98;;;22.00;72.20;;;;;;5192450;28;20038;-46
2021/09/29 03:39:59;;;;;;;16.85;11.73;;;22.00;72.20;;;;;;5187232;28;20062;-49
2021/09/29 03:42:32;;;;;;;17.25;10.65;;;22.00;72.30;;;;;;5170739;28;20053;-51
2021/09/29 03:45:06;;;;;;;18.27;10.65;;;22.00;72.30;;;;;;5170229;28;20060;-49
2021/09/29 03:47:43;;;;;;;18.17;11.05;;;22.00;72.30;;;;;;5188106;28;20045;-48
2021/09/29 03:50:16;;;;;;;16.15;10.07;;;22.00;72.30;;;;;;5189146;28;20045;-47
2021/09/29 03:52:49;;;;;;;16.05;10.50;;;22.00;72.30;;;;;;5181192;28;20663;-49
2021/09/29 03:55:22;;;;;;;18.45;10.32;;;22.00;72.40;;;;;;5183480;28;20494;-54
2021/09/29 03:57:55;;;;;;;;;;;22.00;72.30;;;;;;5187842;28;20050;-46
2021/09/29 04:00:28;;;;;;;19.88;10.02;;;21.90;72.30;;;;;;5204689;28;20321;-49
2021/09/29 04:03:00;;;;;;;12.02;8.60;;;22.00;72.40;;;;;;5186217;28;20601;-51
2021/09/29 04:05:33;;;;;;;10.75;7.53;;;22.00;72.40;;;;;;5188422;28;20426;-49
2021/09/29 04:08:05;;;;;;;10.90;7.75;;;22.00;72.30;;;;;;5187992;28;20053;-47
2021/09/29 04:10:38;;;;;;;13.35;7.10;;;22.00;72.20;;;;;;5186496;28;20050;-49
2021/09/29 04:13:10;;;;;;;12.45;6.95;;;22.00;72.20;;;;;;5188211;28;20081;-47
2021/09/29 04:15:42;;;;;;;12.65;7.45;;;22.00;72.20;;;;;;5184499;28;20046;-52
2021/09/29 04:18:15;;;;;;;9.50;6.38;;;22.10;72.30;;;;;;5186572;28;20049;-46
2021/09/29 04:20:47;;;;;;;10.73;6.70;;;22.10;72.40;;;;;;5190662;28;20042;-45
2021/09/29 04:23:20;;;;;;;9.07;6.55;;;22.10;72.40;;;;;;5187907;28;20049;-47
2021/09/29 04:25:52;;;;;;;16.23;6.30;;;22.10;72.40;;;;;;5186640;28;20045;-46
2021/09/29 04:28:25;;;;;;;10.75;6.85;;;22.10;72.30;;;;;;5192621;28;20052;-51
2021/09/29 04:30:58;;;;;;;9.50;6.15;;;22.10;72.40;;;;;;5178463;28;20049;-46
2021/09/29 04:33:31;;;;;;;9.70;5.90;;;22.10;72.50;;;;;;5184878;28;20055;-45
2021/09/29 04:36:05;;;;;;;11.73;5.60;;;22.20;72.50;;;;;;5190741;28;20493;-49
2021/09/29 04:38:37;;;;;;;10.15;5.32;;;22.10;72.50;;;;;;5192138;28;20414;-52
2021/09/29 04:41:10;;;;;;;8.30;5.70;;;22.20;72.50;;;;;;5186698;28;20050;-49
2021/09/29 04:43:42;;;;;;;9.27;5.68;;;22.20;72.50;;;;;;5159700;28;20473;-50
2021/09/29 04:46:15;;;;;;;7.80;5.57;;;22.20;72.60;;;;;;5177991;28;20367;-49
2021/09/29 04:48:48;;;;;;;7.03;5.80;;;22.10;72.50;;;;;;5168312;28;20559;-52
2021/09/29 04:51:20;;;;;;;11.25;6.38;;;22.20;72.70;;;;;;5179931;28;20526;-47
2021/09/29 04:53:53;;;;;;;10.02;5.78;;;22.20;72.70;;;;;;5181422;28;20053;-53
2021/09/29 04:56:26;;;;;;;28.45;6.18;;;22.20;72.60;;;;;;5171097;28;20045;-49
2021/09/29 04:58:58;;;;;;;11.88;5.68;;;22.20;72.70;;;;;;5175830;28;20045;-50
2021/09/29 05:01:33;;;;;;;9.93;5.90;;;22.20;72.70;;;;;;5170540;28;20056;-47
2021/09/29 05:04:06;;;;;;;8.88;5.45;;;22.20;72.90;;;;;;5163720;28;20061;-50
2021/09/29 05:06:40;;;;;;;13.30;6.07;;;22.20;73.00;;;;;;5167546;28;20053;-50
2021/09/29 05:09:12;;;;;;;14.52;5.25;;;22.20;73.00;;;;;;5156507;28;20213;-49
2021/09/29 05:11:52;;;;;;;32.33;6.90;;;22.20;73.20;;;;;;5170259;28;20056;-47
2021/09/29 05:14:24;;;;;;;15.80;6.65;;;22.30;73.20;;;;;;5184478;28;20041;-46
2021/09/29 05:16:57;;;;;;;18.93;6.57;;;22.30;73.20;;;;;;5190355;28;20048;-49
2021/09/29 05:19:29;;;;;;;25.40;6.22;;;22.30;73.30;;;;;;5177872;28;20210;-48
2021/09/29 05:22:05;;;;;;;20.58;6.13;;;22.20;73.20;;;;;;5172979;28;20052;-53
2021/09/29 05:24:38;;;;;;;15.73;6.30;;;22.30;73.30;;;;;;5181314;28;20049;-51
2021/09/29 05:27:11;;;;;;;20.10;6.25;;;22.20;73.30;;;;;;5186003;28;20536;-52
2021/09/29 05:29:48;;;;;;;17.95;6.32;;;22.30;73.30;;;;;;5165240;28;20052;-45
2021/09/29 05:32:20;;;;;;;16.10;5.72;;;22.30;73.30;;;;;;5161164;28;20060;-54
2021/09/29 05:34:53;;;;;;;14.98;6.03;;;22.30;73.30;;;;;;5166389;28;20053;-46
2021/09/29 05:37:25;;;;;;;13.40;5.50;;;22.30;73.30;;;;;;5180855;28;20357;-48
2021/09/29 05:39:58;;;;;;;15.65;5.47;;;22.30;73.20;;;;;;5184433;28;20054;-52
2021/09/29 05:42:30;;;;;;;16.17;6.05;;;22.30;73.20;;;;;;5189207;28;20771;-44
2021/09/29 05:45:03;;;;;;;15.75;5.60;;;22.30;73.20;;;;;;5192192;28;20726;-49
2021/09/29 05:47:37;;;;;;;13.70;5.75;;;22.30;73.20;;;;;;5190521;28;20069;-48
2021/09/29 05:50:10;;;;;;;13.07;5.20;;;22.30;73.20;;;;;;5178673;28;20055;-47
2021/09/29 05:52:43;;;;;;;15.18;6.00;;;22.20;73.10;;;;;;5195833;28;20050;-47
2021/09/29 05:55:15;;;;;;;12.07;5.20;;;22.30;73.10;;;;;;5186246;28;20053;-47
2021/09/29 05:57:48;;;;;;;14.07;5.63;;;22.30;73.10;;;;;;5189677;28;20300;-47
2021/09/29 06:00:20;;;;;;;14.98;5.28;;;22.30;73.10;;;;;;5179940;28;20042;-51
2021/09/29 06:02:53;;;;;;;11.25;5.10;;;22.30;73.10;;;;;;5183981;28;20037;-47
2021/09/29 06:05:26;;;;;;;14.02;5.32;;;22.30;73.10;;;;;;5182649;28;20045;-46
2021/09/29 06:07:58;;;;;;;6.78;4.53;;;22.20;73.00;;;;;;5190148;28;20049;-53
2021/09/29 06:10:31;;;;;;;9.32;5.25;;;22.20;73.00;;;;;;5191434;28;20517;-45
2021/09/29 06:13:03;;;;;;;14.23;5.30;;;22.20;73.00;;;;;;5183457;28;20824;-50
2021/09/29 06:15:36;;;;;;;15.45;5.18;;;22.20;73.00;;;;;;5185612;28;20800;-47
2021/09/29 06:18:13;;;;;;;10.07;5.28;;;22.20;73.00;;;;;;5181162;28;20600;-49
2021/09/29 06:20:51;;;;;;;14.73;5.28;;;22.30;73.70;;;;;;5183334;28;20506;-50
2021/09/29 06:23:23;;;;;;;11.07;4.75;;;22.30;73.00;;;;;;5192000;28;20168;-46
2021/09/29 06:25:56;;;;;;;8.77;5.10;;;22.30;73.10;;;;;;5193273;28;20048;-48
2021/09/29 06:28:37;;;;;;;8.18;5.03;;;22.30;73.00;;;;;;5188697;28;20049;-45
2021/09/29 06:31:10;;;;;;;12.45;5.03;;;22.30;73.10;;;;;;5183776;28;20056;-45
2021/09/29 06:33:43;;;;;;;6.40;4.38;;;22.30;73.10;;;;;;5185395;28;20493;-49
2021/09/29 06:36:16;;;;;;;15.27;5.43;;;22.30;73.10;;;;;;5185301;28;20046;-49
2021/09/29 06:38:48;;;;;;;9.30;4.68;;;22.20;73.00;;;;;;5189571;28;20506;-48
2021/09/29 06:41:21;;;;;;;9.07;5.05;;;22.20;73.00;;;;;;5192436;28;20060;-47
2021/09/29 06:43:53;;;;;;;8.30;4.63;;;22.30;73.10;;;;;;5191687;28;20095;-53
2021/09/29 06:46:26;;;;;;;8.20;4.73;;;22.30;73.00;;;;;;5191498;28;20049;-44
2021/09/29 06:48:59;;;;;;;7.05;4.15;;;22.20;72.90;;;;;;5190187;28;20771;-45
2021/09/29 06:51:31;;;;;;;7.18;4.15;;;22.30;73.00;;;;;;5174880;28;20053;-44
2021/09/29 06:54:04;;;;;;;6.77;4.13;;;22.20;73.00;;;;;;5192614;28;20052;-44
2021/09/29 06:56:36;;;;;;;11.65;4.72;;;22.20;73.00;;;;;;5187363;28;20524;-44
2021/09/29 06:59:09;;;;;;;11.80;4.40;;;22.30;73.10;;;;;;5184872;28;20052;-46
2021/09/29 07:01:41;;;;;;;11.87;4.17;;;22.30;73.10;;;;;;5154819;28;20413;-48
2021/09/29 07:04:14;;;;;;;9.80;4.97;;;22.20;73.00;;;;;;5190171;28;20049;-48
2021/09/29 07:06:46;;;;;;;11.30;4.20;;;22.20;73.00;;;;;;5183267;28;20050;-49
2021/09/29 07:09:19;;;;;;;7.85;4.75;;;22.20;73.00;;;;;;5188985;28;20513;-48
2021/09/29 07:11:51;;;;;;;6.05;4.30;;;22.30;73.00;;;;;;5192201;28;20051;-46
2021/09/29 07:14:24;;;;;;;8.55;4.60;;;22.20;73.00;;;;;;5187387;28;20124;-49
2021/09/29 07:16:57;;;;;;;7.53;4.38;;;22.20;73.60;;;;;;5170720;28;20057;-46
2021/09/29 07:19:29;;;;;;;6.45;4.00;;;22.20;73.00;;;;;;5169150;28;20434;-45
2021/09/29 07:22:02;;;;;;;7.83;4.17;;;22.20;73.00;;;;;;5189013;28;20045;-51
2021/09/29 07:24:35;;;;;;;10.15;4.35;;;22.20;73.00;;;;;;5189635;28;20045;-46
2021/09/29 07:27:07;;;;;;;7.28;3.80;;;22.20;73.00;;;;;;5191355;28;20429;-46
2021/09/29 07:29:40;;;;;;;7.83;3.67;;;22.20;73.00;;;;;;5191024;28;20413;-46
2021/09/29 07:32:13;;;;;;;7.47;4.30;;;22.20;73.00;;;;;;5189536;28;20053;-46
2021/09/29 07:34:45;;;;;;;7.03;4.05;;;22.20;73.00;;;;;;5187939;28;20053;-46
2021/09/29 07:37:17;;;;;;;4.85;3.47;;;22.20;73.00;;;;;;5182309;28;20041;-47
2021/09/29 07:39:51;;;;;;;7.88;3.85;;;22.30;73.00;;;;;;5178900;28;20120;-47
2021/09/29 07:42:24;;;;;;;4.53;3.55;;;22.30;73.10;;;;;;5187624;28;20042;-47
2021/09/29 07:44:56;;;;;;;6.88;4.07;;;22.20;73.00;;;;;;5187970;28;20053;-51
2021/09/29 07:47:28;;;;;;;6.53;3.92;;;22.20;73.00;;;;;;5187234;28;20056;-53
2021/09/29 07:50:01;;;;;;;5.05;3.78;;;22.30;73.10;;;;;;5166871;28;20421;-49
2021/09/29 07:52:35;;;;;;;5.90;4.03;;;22.30;73.20;;;;;;5192104;28;20049;-48
2021/09/29 07:55:08;;;;;;;6.97;4.40;;;22.20;73.10;;;;;;5184883;28;20061;-46
2021/09/29 07:57:47;;;;;;;5.13;3.55;;;22.30;73.20;;;;;;5192623;28;20056;-46
2021/09/29 08:00:19;;;;;;;4.55;3.45;;;22.30;73.20;;;;;;5177013;28;20053;-47
2021/09/29 08:02:52;;;;;;;11.18;4.63;;;22.20;73.10;;;;;;5190818;28;20076;-48
2021/09/29 08:05:25;;;;;;;6.03;3.42;;;22.30;73.20;;;;;;5183692;28;20045;-52
2021/09/29 08:07:58;;;;;;;14.65;3.90;;;22.30;73.20;;;;;;5192465;28;20057;-47
2021/09/29 08:10:30;;;;;;;7.55;3.75;;;22.20;73.10;;;;;;5188693;28;20052;-52
2021/09/29 08:13:03;;;;;;;4.97;3.83;;;22.30;73.20;;;;;;5190857;28;20064;-47
2021/09/29 08:15:35;;;;;;;8.73;4.20;;;22.30;73.20;;;;;;5187985;28;20049;-49
2021/09/29 08:18:08;;;;;;;5.15;3.28;;;22.30;73.20;;;;;;5188258;28;20056;-50
2021/09/29 08:20:41;;;;;;;5.35;3.70;;;22.30;73.20;;;;;;5185305;28;20050;-47
2021/09/29 08:23:23;;;;;;;4.72;3.30;;;22.30;73.30;;;;;;5188585;28;20041;-48
2021/09/29 08:28:42;;;;;;;5.78;3.72;;;22.30;73.30;;;;;;5188040;28;20060;-45
2021/09/29 08:31:31;;;;;;;4.47;3.60;;;22.30;73.30;;;;;;5183069;28;20060;-45
2021/09/29 08:37:03;;;;;;;4.40;3.40;;;22.20;73.30;;;;;;5191811;28;20050;-47
2021/09/29 08:39:57;;;;;;;8.70;3.55;;;22.30;73.30;;;;;;5186222;28;20041;-43
2021/09/29 08:42:48;;;;;;;5.43;3.30;;;22.30;73.30;;;;;;5189108;28;20053;-48
2021/09/29 08:48:10;;;;;;;6.53;3.58;;;22.30;73.20;;;;;;5178587;28;20045;-44
2021/09/29 08:51:16;;;;;;;6.45;3.40;;;22.30;73.30;;;;;;5158199;28;20057;-47
2021/09/29 09:14:51;;;;;;;5.05;3.60;;;22.30;73.10;;;;;;5143467;28;20052;-45
2021/09/29 09:16:35;;;;;;;6.05;3.40;;;22.30;73.00;;;;;;5170264;28;20053;-47
2021/09/29 09:19:09;;;;;;;5.18;2.67;;;22.30;72.90;;;;;;5189231;28;20054;-48
2021/09/29 09:21:53;;;;;;;2.97;2.50;;;22.30;72.90;;;;;;5189684;28;20060;-50
2021/09/29 09:24:28;;;;;;;8.20;3.10;;;22.30;72.90;;;;;;5190167;28;20053;-50
2021/09/29 09:27:02;;;;;;;6.75;2.83;;;22.30;72.90;;;;;;5189919;28;20045;-49
2021/09/29 09:29:49;;;;;;;7.00;3.20;;;22.30;72.80;;;;;;5186132;28;20525;-47
2021/09/29 09:32:23;;;;;;;4.45;3.15;;;22.40;72.80;;;;;;5187685;28;20421;-45
2021/09/29 09:35:04;;;;;;;4.13;3.03;;;22.40;72.80;;;;;;5191790;28;20045;-50
2021/09/29 09:37:38;;;;;;;5.15;3.17;;;22.40;72.70;;;;;;5193680;28;20068;-47
2021/09/29 09:40:18;;;;;;;5.35;3.10;;;22.40;72.80;;;;;;5191647;28;20041;-53
2021/09/29 09:42:56;;;;;;;6.25;2.80;;;22.40;72.70;;;;;;5188038;28;20049;-53
2021/09/29 09:45:48;;;;;;;4.50;2.78;;;22.40;72.70;;;;;;5156705;28;20187;-46
2021/09/29 09:48:26;;;;;;;8.00;3.42;;;22.40;72.70;;;;;;5187098;28;20053;-49
2021/09/29 09:51:07;;;;;;;5.82;2.78;;;22.40;72.70;;;;;;5189526;28;20508;-50
2021/09/29 09:53:40;;;;;;;4.45;3.05;;;22.40;72.60;;;;;;5189339;28;20053;-49
2021/09/29 09:56:17;;;;;;;5.90;2.63;;;22.40;73.30;;;;;;5191793;28;20053;-52
2021/09/29 09:58:52;;;;;;;4.35;2.83;;;22.40;72.60;;;;;;5189900;28;20060;-53
2021/09/29 10:01:29;;;;;;;5.35;2.70;;;22.40;72.60;;;;;;5193596;28;20053;-46
2021/09/29 10:04:13;;;;;;;5.43;2.60;;;22.40;72.60;;;;;;5188098;28;20437;-51
2021/09/29 10:06:45;;;;;;;;;;;22.40;72.60;;;;;;5195253;28;20516;-47
2021/09/29 10:09:35;;;;;;;4.38;2.67;;;22.40;72.60;;;;;;5194711;28;20385;-47
2021/09/29 10:23:18;;;;;;;4.50;2.55;;;22.40;72.60;;;;;;5195000;28;20711;-47
2021/09/29 10:28:41;;;;;;;4.03;2.70;;;22.40;72.60;;;;;;5191848;28;20041;-45
2021/09/29 10:33:59;;;;;;;3.22;2.58;;;22.40;72.50;;;;;;5194689;28;20053;-48
2021/09/29 10:42:21;;;;;;;3.53;2.30;;;22.50;72.40;;;;;;5180984;28;20041;-46
2021/09/29 11:05:24;;;;;;;10.55;2.50;;;22.60;72.10;;;;;;5190661;28;20057;-47
2021/09/29 11:08:16;;;;;;;8.75;2.83;;;22.60;72.20;;;;;;5193225;28;20045;-47
2021/09/29 11:30:49;;;;;;;16.00;3.13;;;22.80;71.80;;;;;;5186571;28;20050;-47
2021/09/29 11:33:32;;;;;;;8.00;2.10;;;22.80;71.70;;;;;;5177747;28;20094;-45
2021/09/29 11:39:01;;;;;;;;;;;22.80;71.70;;;;;;5189444;28;20581;-46
2021/09/29 12:10:08;;;;;;;3.72;2.08;;;22.70;71.80;;;;;;5177426;28;20050;-52
2021/09/29 12:12:49;;;;;;;5.07;1.98;;;22.80;71.80;;;;;;5167426;28;20045;-47
2021/09/29 12:15:22;;;;;;;4.65;2.22;;;22.80;71.80;;;;;;5163383;28;20816;-44
2021/09/29 12:17:55;;;;;;;3.95;2.13;;;22.80;71.90;;;;;;5178932;28;20037;-52
2021/09/29 12:20:28;;;;;;;6.00;2.20;;;22.90;72.00;;;;;;5161199;28;20042;-50
2021/09/29 12:23:02;;;;;;;4.60;2.20;;;22.90;71.90;;;;;;5165792;28;20053;-46
2021/09/29 12:31:05;;;;;;;8.00;2.33;;;23.00;71.70;;;;;;5174302;28;20057;-53
2021/09/29 12:36:34;;;;;;;4.97;2.40;;;23.00;72.70;;;;;;5163380;28;20046;-49
2021/09/29 12:39:25;;;;;;;5.75;2.15;;;23.10;72.10;;;;;;5163718;28;20041;-50
2021/09/29 12:41:58;;;;;;;6.53;1.95;;;23.20;72.10;;;;;;5165954;28;20055;-54
2021/09/29 12:44:32;;;;;;;4.68;2.00;;;23.20;72.00;;;;;;5168327;28;20326;-55
2021/09/29 12:47:09;;;;;;;8.63;2.33;;;23.30;72.10;;;;;;5175676;28;20056;-47
2021/09/29 12:49:42;;;;;;;7.65;2.38;;;23.30;71.80;;;;;;5171065;28;20534;-45
2021/09/29 12:52:34;;;;;;;7.63;2.38;;;23.30;71.70;;;;;;5170163;28;20053;-50
2021/09/29 12:55:07;;;;;;;5.20;1.73;;;23.40;71.60;;;;;;5167110;28;20061;-53
2021/09/29 12:57:49;;;;;;;8.93;2.40;;;23.40;71.50;;;;;;5171371;28;20604;-50
2021/09/29 13:00:21;;;;;;;6.03;2.03;;;23.40;71.40;;;;;;5163759;28;20068;-52
2021/09/29 13:02:54;;;;;;;4.22;2.03;;;23.40;71.30;;;;;;5170143;28;20054;-55
2021/09/29 13:05:27;;;;;;;7.35;2.00;;;23.50;71.30;;;;;;5166059;28;20072;-47
2021/09/29 13:07:59;;;;;;;5.82;2.47;;;23.50;71.20;;;;;;5162114;28;20421;-52
2021/09/29 13:10:32;;;;;;;4.18;1.85;;;23.50;71.00;;;;;;5158221;28;20538;-50
2021/09/29 13:13:04;;;;;;;6.35;1.88;;;23.50;70.80;;;;;;5153843;28;20049;-47
2021/09/29 13:15:43;;;;;;;4.97;1.97;;;23.50;70.80;;;;;;5149405;28;20626;-50
2021/09/29 13:21:24;;;;;;;8.65;2.30;;;23.50;70.90;;;;;;5162025;28;20057;-57
2021/09/29 13:24:14;;;;;;;5.38;2.35;;;23.50;71.00;;;;;;5159217;28;20620;-48
2021/09/29 13:38:01;;;;;;;6.65;2.03;;;23.60;70.70;;;;;;5168146;28;20049;-53
2021/09/29 13:40:34;;;;;;;3.80;1.85;;;23.60;70.60;;;;;;5162647;28;20049;-49
2021/09/29 13:43:07;;;;;;;4.45;1.88;;;23.70;70.60;;;;;;5156467;28;20057;-52
2021/09/29 13:45:40;;;;;;;3.78;1.80;;;23.70;70.60;;;;;;5168441;28;20041;-48
2021/09/29 13:48:12;;;;;;;5.37;2.23;;;23.70;70.60;;;;;;5164381;28;20427;-50
2021/09/29 13:50:45;;;;;;;6.73;1.93;;;23.70;70.60;;;;;;5140088;28;20415;-49
2021/09/29 13:53:17;;;;;;;6.43;2.17;;;23.70;70.50;;;;;;5166900;28;20053;-48
2021/09/29 13:55:50;;;;;;;6.38;2.00;;;23.70;70.50;;;;;;5156203;28;20058;-52
2021/09/29 14:01:21;;;;;;;6.07;2.15;;;23.80;70.50;;;;;;5161101;28;20053;-51
2021/09/29 14:14:16;;;;;;;6.55;2.03;;;23.80;70.40;;;;;;5159725;28;20519;-52
2021/09/29 14:35:36;;;;;;;8.23;2.10;;;24.20;69.50;;;;;;5176145;28;20088;-51
2021/09/29 14:38:10;;;;;;;9.18;2.00;;;24.20;70.00;;;;;;5157432;28;20991;-50
2021/09/29 14:40:43;;;;;;;4.43;1.77;;;24.20;69.50;;;;;;5131230;28;20056;-58
2021/09/29 14:43:16;;;;;;;6.50;2.10;;;24.30;69.30;;;;;;5133331;28;20054;-57
2021/09/29 14:45:49;;;;;;;13.45;1.92;;;24.40;69.00;;;;;;5132764;28;20332;-56
2021/09/29 14:48:21;;;;;;;10.38;2.00;;;24.40;68.60;;;;;;5147119;28;20054;-51
2021/09/29 14:50:54;;;;;;;10.55;2.17;;;24.40;68.40;;;;;;5152914;28;20548;-52
2021/09/29 14:53:26;;;;;;;9.18;1.77;;;24.40;68.20;;;;;;5150767;28;20049;-54
2021/09/29 14:56:00;;;;;;;10.60;2.30;;;24.40;68.00;;;;;;5156758;28;20050;-54
2021/09/29 14:58:34;;;;;;;4.88;1.92;;;24.40;67.90;;;;;;5158860;28;20041;-53
2021/09/29 15:01:06;;;;;;;8.43;1.63;;;24.40;67.80;;;;;;5156490;28;20525;-54
2021/09/29 15:03:40;;;;;;;7.90;2.10;;;24.40;67.80;;;;;;5153299;28;20061;-53
2021/09/29 15:06:14;;;;;;;4.57;1.42;;;24.40;67.70;;;;;;5163014;28;20050;-54
2021/09/29 15:08:46;;;;;;;5.30;1.60;;;24.40;67.70;;;;;;5153139;28;20431;-53
2021/09/29 15:11:21;;;;;;;4.07;1.80;;;24.40;67.70;;;;;;5156122;28;20049;-53
2021/09/29 15:13:57;;;;;;;6.00;1.77;;;24.40;67.70;;;;;;5152882;28;20559;-54
2021/09/29 15:16:31;;;;;;;7.25;1.85;;;24.40;67.60;;;;;;5157397;28;20422;-53
2021/09/29 15:49:25;;;;;;;6.72;1.88;;;24.20;67.90;;;;;;5140370;28;20079;-54
2021/09/29 15:52:06;;;;;;;7.90;1.40;;;24.10;67.90;;;;;;5140855;28;20646;-54
2021/09/29 15:57:58;;;;;;;10.35;2.00;;;24.10;68.00;;;;;;5143197;28;20336;-53
2021/09/29 16:00:42;;;;;;;4.53;1.40;;;24.10;68.00;;;;;;5150487;28;20050;-55
2021/09/29 16:03:25;;;;;;;4.93;1.80;;;24.10;68.00;;;;;;5140042;28;20052;-53
2021/09/29 16:19:31;;;;;;;2.30;1.20;;;24.00;68.10;;;;;;5151583;28;20601;-51
2021/09/29 16:31:47;;;;;;;4.85;1.52;;;23.90;68.90;;;;;;5091650;28;20608;-58
2021/09/29 16:33:54;;;;;;;3.92;1.42;;;23.90;68.40;;;;;;5085324;28;20471;-55
2021/09/29 16:36:27;;;;;;;3.45;1.83;;;23.90;68.50;;;;;;5141887;28;20046;-56
2021/09/29 16:38:59;;;;;;;3.97;1.50;;;23.90;68.50;;;;;;5148017;28;20050;-54
2021/09/29 16:41:32;;;;;;;3.00;1.40;;;23.90;68.50;;;;;;5153319;28;20041;-53
2021/09/29 16:44:07;;;;;;;2.03;1.27;;;23.80;68.50;;;;;;5142588;28;20045;-52
2021/09/29 16:46:48;;;;;;;4.35;1.48;;;23.80;68.50;;;;;;5143160;28;20041;-53
2021/09/29 16:49:24;;;;;;;3.65;1.25;;;23.80;68.50;;;;;;5150917;28;21438;-53
2021/09/29 16:52:04;;;;;;;3.25;1.55;;;23.80;68.60;;;;;;5154442;28;20418;-55
2021/09/29 16:54:37;;;;;;;3.80;1.55;;;23.80;68.60;;;;;;5151806;28;20049;-52
2021/09/29 16:57:14;;;;;;;3.08;1.38;;;23.80;68.60;;;;;;5148851;28;20049;-55
2021/09/29 17:00:19;;;;;;;4.65;1.40;;;23.80;68.60;;;;;;5146307;28;20062;-54
2021/09/29 17:02:42;;;;;;;4.25;1.52;;;23.80;68.70;;;;;;5151019;28;20764;-54
2021/09/29 17:05:19;;;;;;;8.07;1.60;;;23.80;68.70;;;;;;4458463;28;10000612;-55
2021/09/29 17:07:53;;;;;;;5.03;1.75;;;23.80;68.70;;;;;;5155727;28;21670;-52
2021/09/29 17:10:26;;;;;;;3.65;1.40;;;23.80;68.80;;;;;;5163888;28;20045;-56
2021/09/29 17:12:59;;;;;;;13.88;2.38;;;23.70;68.70;;;;;;5158994;28;20049;-50